sensor_id;sensor_type;location;lat;lon;timestamp;P1;durP1;ratioP1;P2;durP2;ratioP2
49722;SDS011;43484;43.608;1.458;2023-01-15T00:00:20;5.57;;;2.05;;
49722;SDS011;43484;43.608;1.458;2023-01-15T00:02:47;3.90;;;1.73;;
49722;SDS011;43484;43.608;1.458;2023-01-15T00:05:13;3.53;;;1.60;;
49722;SDS011;43484;43.608;1.458;2023-01-15T00:07:40;4.43;;;1.75;;
49722;SDS011;43484;43.608;1.458;2023-01-15T00:10:06;7.93;;;1.65;;
49722;SDS011;43484;43.608;1.458;2023-01-15T00:12:33;3.33;;;1.60;;
49722;SDS011;43484;43.608;1.458;2023-01-15T00:15:00;3.67;;;1.80;;
49722;SDS011;43484;43.608;1.458;2023-01-15T00:17:27;3.78;;;1.70;;
49722;SDS011;43484;43.608;1.458;2023-01-15T00:19:53;3.03;;;1.42;;
49722;SDS011;43484;43.608;1.458;2023-01-15T00:22:20;3.13;;;1.85;;
49722;SDS011;43484;43.608;1.458;2023-01-15T00:24:46;2.90;;;1.63;;
49722;SDS011;43484;43.608;1.458;2023-01-15T00:27:31;3.22;;;1.83;;
49722;SDS011;43484;43.608;1.458;2023-01-15T00:30:04;5.72;;;1.67;;
49722;SDS011;43484;43.608;1.458;2023-01-15T00:32:32;3.85;;;1.60;;
49722;SDS011;43484;43.608;1.458;2023-01-15T00:34:58;3.83;;;1.80;;
49722;SDS011;43484;43.608;1.458;2023-01-15T00:37:25;3.08;;;1.70;;
49722;SDS011;43484;43.608;1.458;2023-01-15T00:39:52;5.93;;;1.83;;
49722;SDS011;43484;43.608;1.458;2023-01-15T00:42:19;4.38;;;1.88;;
49722;SDS011;43484;43.608;1.458;2023-01-15T00:44:46;3.80;;;2.00;;
49722;SDS011;43484;43.608;1.458;2023-01-15T00:47:12;5.38;;;1.88;;
49722;SDS011;43484;43.608;1.458;2023-01-15T00:49:40;2.90;;;1.48;;
49722;SDS011;43484;43.608;1.458;2023-01-15T00:52:08;3.30;;;1.40;;
49722;SDS011;43484;43.608;1.458;2023-01-15T00:54:35;2.92;;;1.65;;
49722;SDS011;43484;43.608;1.458;2023-01-15T00:57:02;4.13;;;1.88;;
49722;SDS011;43484;43.608;1.458;2023-01-15T00:59:28;4.32;;;1.65;;
49722;SDS011;43484;43.608;1.458;2023-01-15T01:01:55;3.80;;;1.58;;
49722;SDS011;43484;43.608;1.458;2023-01-15T01:04:22;4.22;;;1.58;;
49722;SDS011;43484;43.608;1.458;2023-01-15T01:06:48;4.50;;;1.38;;
49722;SDS011;43484;43.608;1.458;2023-01-15T01:09:15;4.85;;;1.65;;
49722;SDS011;43484;43.608;1.458;2023-01-15T01:11:42;3.58;;;1.70;;
49722;SDS011;43484;43.608;1.458;2023-01-15T01:14:10;3.13;;;1.50;;
49722;SDS011;43484;43.608;1.458;2023-01-15T01:16:38;5.07;;;1.95;;
49722;SDS011;43484;43.608;1.458;2023-01-15T01:19:13;3.30;;;1.45;;
49722;SDS011;43484;43.608;1.458;2023-01-15T01:21:42;9.18;;;1.80;;
49722;SDS011;43484;43.608;1.458;2023-01-15T01:24:10;7.50;;;1.85;;
49722;SDS011;43484;43.608;1.458;2023-01-15T01:26:39;3.63;;;1.80;;
49722;SDS011;43484;43.608;1.458;2023-01-15T01:29:06;3.33;;;1.83;;
49722;SDS011;43484;43.608;1.458;2023-01-15T01:31:33;3.47;;;1.73;;
49722;SDS011;43484;43.608;1.458;2023-01-15T01:33:59;4.70;;;1.92;;
49722;SDS011;43484;43.608;1.458;2023-01-15T01:36:27;3.38;;;1.45;;
49722;SDS011;43484;43.608;1.458;2023-01-15T01:38:56;3.03;;;1.50;;
49722;SDS011;43484;43.608;1.458;2023-01-15T01:41:23;5.45;;;1.33;;
49722;SDS011;43484;43.608;1.458;2023-01-15T01:44:00;4.63;;;1.35;;
49722;SDS011;43484;43.608;1.458;2023-01-15T01:46:33;4.07;;;1.70;;
49722;SDS011;43484;43.608;1.458;2023-01-15T01:51:38;2.55;;;1.40;;
49722;SDS011;43484;43.608;1.458;2023-01-15T01:54:08;2.80;;;1.23;;
49722;SDS011;43484;43.608;1.458;2023-01-15T01:56:38;2.78;;;1.40;;
49722;SDS011;43484;43.608;1.458;2023-01-15T01:59:05;2.78;;;1.20;;
49722;SDS011;43484;43.608;1.458;2023-01-15T02:01:33;4.25;;;1.30;;
49722;SDS011;43484;43.608;1.458;2023-01-15T02:04:00;4.43;;;1.33;;
49722;SDS011;43484;43.608;1.458;2023-01-15T02:06:28;3.10;;;1.52;;
49722;SDS011;43484;43.608;1.458;2023-01-15T02:08:55;2.05;;;1.20;;
49722;SDS011;43484;43.608;1.458;2023-01-15T02:11:22;3.65;;;1.45;;
49722;SDS011;43484;43.608;1.458;2023-01-15T02:13:55;4.55;;;1.38;;
49722;SDS011;43484;43.608;1.458;2023-01-15T02:24:45;3.28;;;1.20;;
49722;SDS011;43484;43.608;1.458;2023-01-15T02:27:43;3.53;;;1.23;;
49722;SDS011;43484;43.608;1.458;2023-01-15T02:35:21;2.78;;;1.10;;
49722;SDS011;43484;43.608;1.458;2023-01-15T02:38:10;1.63;;;1.08;;
49722;SDS011;43484;43.608;1.458;2023-01-15T02:40:42;3.25;;;1.63;;
49722;SDS011;43484;43.608;1.458;2023-01-15T02:43:11;2.05;;;1.38;;
49722;SDS011;43484;43.608;1.458;2023-01-15T02:45:39;2.63;;;1.35;;
49722;SDS011;43484;43.608;1.458;2023-01-15T02:48:11;3.67;;;1.20;;
49722;SDS011;43484;43.608;1.458;2023-01-15T02:50:42;3.60;;;1.42;;
49722;SDS011;43484;43.608;1.458;2023-01-15T02:53:13;2.30;;;1.15;;
49722;SDS011;43484;43.608;1.458;2023-01-15T02:55:46;2.70;;;1.35;;
49722;SDS011;43484;43.608;1.458;2023-01-15T02:58:16;1.83;;;1.00;;
49722;SDS011;43484;43.608;1.458;2023-01-15T03:00:48;5.00;;;1.20;;
49722;SDS011;43484;43.608;1.458;2023-01-15T03:03:21;3.95;;;1.70;;
49722;SDS011;43484;43.608;1.458;2023-01-15T03:06:04;2.65;;;1.00;;
49722;SDS011;43484;43.608;1.458;2023-01-15T03:08:41;3.05;;;1.50;;
49722;SDS011;43484;43.608;1.458;2023-01-15T03:11:15;5.65;;;1.60;;
49722;SDS011;43484;43.608;1.458;2023-01-15T03:13:49;1.60;;;1.15;;
49722;SDS011;43484;43.608;1.458;2023-01-15T03:22:20;1.85;;;1.17;;
49722;SDS011;43484;43.608;1.458;2023-01-15T03:27:41;3.47;;;1.15;;
49722;SDS011;43484;43.608;1.458;2023-01-15T03:30:12;3.60;;;1.70;;
49722;SDS011;43484;43.608;1.458;2023-01-15T03:32:41;1.92;;;1.20;;
49722;SDS011;43484;43.608;1.458;2023-01-15T03:35:38;1.95;;;1.15;;
49722;SDS011;43484;43.608;1.458;2023-01-15T03:38:13;2.58;;;1.50;;
49722;SDS011;43484;43.608;1.458;2023-01-15T03:40:47;2.08;;;1.25;;
49722;SDS011;43484;43.608;1.458;2023-01-15T03:43:31;3.20;;;1.45;;
49722;SDS011;43484;43.608;1.458;2023-01-15T03:46:17;3.20;;;1.38;;
49722;SDS011;43484;43.608;1.458;2023-01-15T03:51:35;1.83;;;1.40;;
49722;SDS011;43484;43.608;1.458;2023-01-15T03:54:10;5.78;;;1.52;;
49722;SDS011;43484;43.608;1.458;2023-01-15T03:56:50;2.33;;;1.20;;
49722;SDS011;43484;43.608;1.458;2023-01-15T03:59:33;2.47;;;1.13;;
49722;SDS011;43484;43.608;1.458;2023-01-15T04:02:03;3.10;;;1.25;;
49722;SDS011;43484;43.608;1.458;2023-01-15T04:04:33;2.35;;;1.40;;
49722;SDS011;43484;43.608;1.458;2023-01-15T04:07:00;3.78;;;1.45;;
49722;SDS011;43484;43.608;1.458;2023-01-15T04:09:28;2.95;;;1.85;;
49722;SDS011;43484;43.608;1.458;2023-01-15T04:11:59;3.75;;;1.40;;
49722;SDS011;43484;43.608;1.458;2023-01-15T04:14:27;3.30;;;1.55;;
49722;SDS011;43484;43.608;1.458;2023-01-15T04:16:55;2.55;;;1.23;;
49722;SDS011;43484;43.608;1.458;2023-01-15T04:19:21;3.42;;;1.20;;
49722;SDS011;43484;43.608;1.458;2023-01-15T04:21:48;3.35;;;1.35;;
49722;SDS011;43484;43.608;1.458;2023-01-15T04:24:15;2.70;;;1.42;;
49722;SDS011;43484;43.608;1.458;2023-01-15T04:26:41;2.47;;;1.52;;
49722;SDS011;43484;43.608;1.458;2023-01-15T04:29:08;2.97;;;1.83;;
49722;SDS011;43484;43.608;1.458;2023-01-15T04:31:35;6.30;;;1.48;;
49722;SDS011;43484;43.608;1.458;2023-01-15T04:34:02;2.72;;;1.92;;
49722;SDS011;43484;43.608;1.458;2023-01-15T04:36:29;3.42;;;1.73;;
49722;SDS011;43484;43.608;1.458;2023-01-15T04:38:56;1.63;;;1.13;;
49722;SDS011;43484;43.608;1.458;2023-01-15T04:41:25;1.90;;;1.48;;
49722;SDS011;43484;43.608;1.458;2023-01-15T04:44:10;3.40;;;1.60;;
49722;SDS011;43484;43.608;1.458;2023-01-15T04:46:37;2.83;;;1.77;;
49722;SDS011;43484;43.608;1.458;2023-01-15T04:49:15;3.22;;;1.80;;
49722;SDS011;43484;43.608;1.458;2023-01-15T04:51:43;2.35;;;1.70;;
49722;SDS011;43484;43.608;1.458;2023-01-15T04:54:11;3.55;;;1.60;;
49722;SDS011;43484;43.608;1.458;2023-01-15T04:56:40;2.70;;;1.42;;
49722;SDS011;43484;43.608;1.458;2023-01-15T04:59:12;3.13;;;1.45;;
49722;SDS011;43484;43.608;1.458;2023-01-15T05:01:40;4.60;;;1.80;;
49722;SDS011;43484;43.608;1.458;2023-01-15T05:04:19;2.22;;;1.88;;
49722;SDS011;43484;43.608;1.458;2023-01-15T05:06:46;2.47;;;1.98;;
49722;SDS011;43484;43.608;1.458;2023-01-15T05:09:13;3.17;;;1.45;;
49722;SDS011;43484;43.608;1.458;2023-01-15T05:11:39;3.22;;;1.95;;
49722;SDS011;43484;43.608;1.458;2023-01-15T05:14:06;2.40;;;1.55;;
49722;SDS011;43484;43.608;1.458;2023-01-15T05:16:33;2.00;;;1.48;;
49722;SDS011;43484;43.608;1.458;2023-01-15T05:19:01;3.03;;;1.85;;
49722;SDS011;43484;43.608;1.458;2023-01-15T05:21:30;2.70;;;1.83;;
49722;SDS011;43484;43.608;1.458;2023-01-15T05:23:59;2.60;;;1.40;;
49722;SDS011;43484;43.608;1.458;2023-01-15T05:26:27;2.13;;;1.63;;
49722;SDS011;43484;43.608;1.458;2023-01-15T05:28:57;3.10;;;1.83;;
49722;SDS011;43484;43.608;1.458;2023-01-15T05:31:24;3.67;;;1.80;;
49722;SDS011;43484;43.608;1.458;2023-01-15T05:33:52;1.88;;;1.50;;
49722;SDS011;43484;43.608;1.458;2023-01-15T05:36:21;2.55;;;1.83;;
49722;SDS011;43484;43.608;1.458;2023-01-15T05:38:53;2.88;;;1.90;;
49722;SDS011;43484;43.608;1.458;2023-01-15T05:41:20;3.58;;;1.40;;
49722;SDS011;43484;43.608;1.458;2023-01-15T05:44:07;3.33;;;1.50;;
49722;SDS011;43484;43.608;1.458;2023-01-15T05:46:37;2.20;;;1.23;;
49722;SDS011;43484;43.608;1.458;2023-01-15T05:49:06;2.15;;;1.42;;
49722;SDS011;43484;43.608;1.458;2023-01-15T05:51:34;4.20;;;2.08;;
49722;SDS011;43484;43.608;1.458;2023-01-15T05:54:02;3.05;;;1.88;;
49722;SDS011;43484;43.608;1.458;2023-01-15T05:56:30;5.45;;;2.13;;
49722;SDS011;43484;43.608;1.458;2023-01-15T05:58:57;3.38;;;2.03;;
49722;SDS011;43484;43.608;1.458;2023-01-15T06:01:24;2.40;;;1.70;;
49722;SDS011;43484;43.608;1.458;2023-01-15T06:03:50;4.15;;;2.28;;
49722;SDS011;43484;43.608;1.458;2023-01-15T06:06:18;2.70;;;1.77;;
49722;SDS011;43484;43.608;1.458;2023-01-15T06:08:45;3.30;;;1.85;;
49722;SDS011;43484;43.608;1.458;2023-01-15T06:11:12;4.40;;;1.85;;
49722;SDS011;43484;43.608;1.458;2023-01-15T06:13:39;3.20;;;1.92;;
49722;SDS011;43484;43.608;1.458;2023-01-15T06:16:06;2.63;;;1.83;;
49722;SDS011;43484;43.608;1.458;2023-01-15T06:18:33;3.17;;;1.83;;
49722;SDS011;43484;43.608;1.458;2023-01-15T06:21:08;1.98;;;1.67;;
49722;SDS011;43484;43.608;1.458;2023-01-15T06:23:36;3.63;;;2.05;;
49722;SDS011;43484;43.608;1.458;2023-01-15T06:26:05;3.08;;;1.85;;
49722;SDS011;43484;43.608;1.458;2023-01-15T06:28:33;2.33;;;1.42;;
49722;SDS011;43484;43.608;1.458;2023-01-15T06:31:03;2.50;;;2.00;;
49722;SDS011;43484;43.608;1.458;2023-01-15T06:33:31;3.53;;;1.88;;
49722;SDS011;43484;43.608;1.458;2023-01-15T06:35:57;2.65;;;1.67;;
49722;SDS011;43484;43.608;1.458;2023-01-15T06:38:28;3.75;;;2.10;;
49722;SDS011;43484;43.608;1.458;2023-01-15T06:40:56;1.90;;;1.55;;
49722;SDS011;43484;43.608;1.458;2023-01-15T06:43:24;2.92;;;1.63;;
49722;SDS011;43484;43.608;1.458;2023-01-15T06:46:16;2.40;;;1.42;;
49722;SDS011;43484;43.608;1.458;2023-01-15T06:49:01;3.90;;;1.63;;
49722;SDS011;43484;43.608;1.458;2023-01-15T06:51:28;3.65;;;1.40;;
49722;SDS011;43484;43.608;1.458;2023-01-15T06:53:56;2.67;;;1.73;;
49722;SDS011;43484;43.608;1.458;2023-01-15T06:56:23;2.53;;;1.50;;
49722;SDS011;43484;43.608;1.458;2023-01-15T06:58:49;4.47;;;1.60;;
49722;SDS011;43484;43.608;1.458;2023-01-15T07:01:16;2.03;;;1.40;;
49722;SDS011;43484;43.608;1.458;2023-01-15T07:03:43;2.58;;;1.48;;
49722;SDS011;43484;43.608;1.458;2023-01-15T07:06:10;2.78;;;1.30;;
49722;SDS011;43484;43.608;1.458;2023-01-15T07:08:38;2.30;;;1.38;;
49722;SDS011;43484;43.608;1.458;2023-01-15T07:11:06;2.22;;;1.38;;
49722;SDS011;43484;43.608;1.458;2023-01-15T07:13:35;1.58;;;1.27;;
49722;SDS011;43484;43.608;1.458;2023-01-15T07:16:02;2.53;;;1.40;;
49722;SDS011;43484;43.608;1.458;2023-01-15T07:18:31;2.22;;;1.40;;
49722;SDS011;43484;43.608;1.458;2023-01-15T07:20:59;2.33;;;1.20;;
49722;SDS011;43484;43.608;1.458;2023-01-15T07:23:26;2.72;;;1.25;;
49722;SDS011;43484;43.608;1.458;2023-01-15T07:25:53;3.10;;;1.23;;
49722;SDS011;43484;43.608;1.458;2023-01-15T07:28:21;1.58;;;0.90;;
49722;SDS011;43484;43.608;1.458;2023-01-15T07:30:48;1.10;;;1.00;;
49722;SDS011;43484;43.608;1.458;2023-01-15T07:33:14;1.77;;;1.17;;
49722;SDS011;43484;43.608;1.458;2023-01-15T07:35:41;1.85;;;0.93;;
49722;SDS011;43484;43.608;1.458;2023-01-15T07:38:08;1.60;;;0.90;;
49722;SDS011;43484;43.608;1.458;2023-01-15T07:40:34;0.90;;;0.70;;
49722;SDS011;43484;43.608;1.458;2023-01-15T07:43:01;1.55;;;0.80;;
49722;SDS011;43484;43.608;1.458;2023-01-15T07:45:46;1.27;;;0.68;;
49722;SDS011;43484;43.608;1.458;2023-01-15T07:48:33;2.08;;;0.70;;
49722;SDS011;43484;43.608;1.458;2023-01-15T07:51:18;1.40;;;0.80;;
49722;SDS011;43484;43.608;1.458;2023-01-15T07:53:44;1.77;;;0.85;;
49722;SDS011;43484;43.608;1.458;2023-01-15T07:56:11;0.95;;;0.70;;
49722;SDS011;43484;43.608;1.458;2023-01-15T07:58:38;0.77;;;0.63;;
49722;SDS011;43484;43.608;1.458;2023-01-15T08:01:05;2.10;;;0.68;;
49722;SDS011;43484;43.608;1.458;2023-01-15T08:03:32;2.90;;;0.52;;
49722;SDS011;43484;43.608;1.458;2023-01-15T08:05:58;3.78;;;0.70;;
49722;SDS011;43484;43.608;1.458;2023-01-15T08:08:25;2.58;;;0.60;;
49722;SDS011;43484;43.608;1.458;2023-01-15T08:10:51;2.20;;;0.55;;
49722;SDS011;43484;43.608;1.458;2023-01-15T08:13:36;1.08;;;0.52;;
49722;SDS011;43484;43.608;1.458;2023-01-15T08:16:21;3.25;;;0.57;;
49722;SDS011;43484;43.608;1.458;2023-01-15T08:18:48;6.15;;;0.50;;
49722;SDS011;43484;43.608;1.458;2023-01-15T08:21:14;2.60;;;0.60;;
49722;SDS011;43484;43.608;1.458;2023-01-15T08:23:41;1.45;;;0.45;;
49722;SDS011;43484;43.608;1.458;2023-01-15T08:26:08;6.57;;;0.70;;
49722;SDS011;43484;43.608;1.458;2023-01-15T08:28:35;11.15;;;0.73;;
49722;SDS011;43484;43.608;1.458;2023-01-15T08:31:03;1.80;;;0.50;;
49722;SDS011;43484;43.608;1.458;2023-01-15T08:33:31;2.15;;;0.40;;
49722;SDS011;43484;43.608;1.458;2023-01-15T08:35:58;0.95;;;0.43;;
49722;SDS011;43484;43.608;1.458;2023-01-15T08:38:24;6.35;;;0.60;;
49722;SDS011;43484;43.608;1.458;2023-01-15T08:40:54;13.50;;;1.20;;
49722;SDS011;43484;43.608;1.458;2023-01-15T08:43:29;5.25;;;0.50;;
49722;SDS011;43484;43.608;1.458;2023-01-15T08:46:01;15.30;;;0.90;;
49722;SDS011;43484;43.608;1.458;2023-01-15T08:48:30;13.00;;;1.73;;
49722;SDS011;43484;43.608;1.458;2023-01-15T08:50:57;5.90;;;0.70;;
49722;SDS011;43484;43.608;1.458;2023-01-15T08:53:24;7.88;;;0.75;;
49722;SDS011;43484;43.608;1.458;2023-01-15T08:55:51;12.68;;;1.02;;
49722;SDS011;43484;43.608;1.458;2023-01-15T08:58:20;4.88;;;0.63;;
49722;SDS011;43484;43.608;1.458;2023-01-15T09:00:47;10.23;;;1.00;;
49722;SDS011;43484;43.608;1.458;2023-01-15T09:03:13;8.40;;;0.70;;
49722;SDS011;43484;43.608;1.458;2023-01-15T09:05:40;5.15;;;0.90;;
49722;SDS011;43484;43.608;1.458;2023-01-15T09:08:07;10.57;;;1.27;;
49722;SDS011;43484;43.608;1.458;2023-01-15T09:10:34;20.58;;;1.58;;
49722;SDS011;43484;43.608;1.458;2023-01-15T09:13:01;4.68;;;0.60;;
49722;SDS011;43484;43.608;1.458;2023-01-15T09:15:29;4.38;;;0.70;;
49722;SDS011;43484;43.608;1.458;2023-01-15T09:17:56;6.13;;;0.70;;
49722;SDS011;43484;43.608;1.458;2023-01-15T09:20:23;8.25;;;1.13;;
49722;SDS011;43484;43.608;1.458;2023-01-15T09:22:50;16.35;;;0.93;;
49722;SDS011;43484;43.608;1.458;2023-01-15T09:25:17;9.73;;;0.90;;
49722;SDS011;43484;43.608;1.458;2023-01-15T09:27:45;13.40;;;0.90;;
49722;SDS011;43484;43.608;1.458;2023-01-15T09:30:13;10.02;;;1.02;;
49722;SDS011;43484;43.608;1.458;2023-01-15T09:32:43;6.97;;;0.80;;
49722;SDS011;43484;43.608;1.458;2023-01-15T09:35:10;24.45;;;1.38;;
49722;SDS011;43484;43.608;1.458;2023-01-15T09:37:36;4.53;;;0.50;;
49722;SDS011;43484;43.608;1.458;2023-01-15T09:40:04;7.78;;;0.65;;
49722;SDS011;43484;43.608;1.458;2023-01-15T09:42:42;6.63;;;1.00;;
49722;SDS011;43484;43.608;1.458;2023-01-15T09:45:21;7.03;;;1.10;;
49722;SDS011;43484;43.608;1.458;2023-01-15T09:51:17;5.40;;;0.60;;
49722;SDS011;43484;43.608;1.458;2023-01-15T09:57:02;2.20;;;0.60;;
49722;SDS011;43484;43.608;1.458;2023-01-15T09:59:31;5.13;;;0.47;;
49722;SDS011;43484;43.608;1.458;2023-01-15T10:02:03;7.30;;;0.70;;
49722;SDS011;43484;43.608;1.458;2023-01-15T10:04:46;2.33;;;0.77;;
49722;SDS011;43484;43.608;1.458;2023-01-15T10:10:06;3.85;;;0.43;;
49722;SDS011;43484;43.608;1.458;2023-01-15T10:15:09;3.60;;;0.52;;
49722;SDS011;43484;43.608;1.458;2023-01-15T10:17:40;2.55;;;0.50;;
49722;SDS011;43484;43.608;1.458;2023-01-15T10:20:20;1.80;;;0.38;;
49722;SDS011;43484;43.608;1.458;2023-01-15T10:26:35;1.30;;;0.35;;
49722;SDS011;43484;43.608;1.458;2023-01-15T10:29:22;1.75;;;0.38;;
49722;SDS011;43484;43.608;1.458;2023-01-15T10:37:22;1.95;;;0.40;;
49722;SDS011;43484;43.608;1.458;2023-01-15T10:40:19;4.15;;;0.40;;
49722;SDS011;43484;43.608;1.458;2023-01-15T10:45:38;4.40;;;0.40;;
49722;SDS011;43484;43.608;1.458;2023-01-15T10:50:42;2.55;;;0.40;;
49722;SDS011;43484;43.608;1.458;2023-01-15T10:53:29;1.70;;;0.50;;
49722;SDS011;43484;43.608;1.458;2023-01-15T11:01:56;3.35;;;0.52;;
49722;SDS011;43484;43.608;1.458;2023-01-15T11:04:25;1.92;;;0.50;;
49722;SDS011;43484;43.608;1.458;2023-01-15T11:06:56;3.83;;;0.57;;
49722;SDS011;43484;43.608;1.458;2023-01-15T11:09:25;2.05;;;0.35;;
49722;SDS011;43484;43.608;1.458;2023-01-15T11:14:50;1.85;;;0.40;;
49722;SDS011;43484;43.608;1.458;2023-01-15T11:20:29;15.45;;;0.68;;
49722;SDS011;43484;43.608;1.458;2023-01-15T11:23:05;6.63;;;0.60;;
49722;SDS011;43484;43.608;1.458;2023-01-15T11:25:34;6.38;;;0.70;;
49722;SDS011;43484;43.608;1.458;2023-01-15T11:28:02;20.65;;;1.25;;
49722;SDS011;43484;43.608;1.458;2023-01-15T11:30:36;17.48;;;0.80;;
49722;SDS011;43484;43.608;1.458;2023-01-15T11:33:04;13.02;;;1.42;;
49722;SDS011;43484;43.608;1.458;2023-01-15T11:35:32;11.32;;;0.88;;
49722;SDS011;43484;43.608;1.458;2023-01-15T11:38:03;4.93;;;0.50;;
49722;SDS011;43484;43.608;1.458;2023-01-15T11:40:38;4.38;;;0.50;;
49722;SDS011;43484;43.608;1.458;2023-01-15T11:43:26;2.65;;;0.45;;
49722;SDS011;43484;43.608;1.458;2023-01-15T11:46:25;11.70;;;0.82;;
49722;SDS011;43484;43.608;1.458;2023-01-15T11:49:15;5.80;;;0.90;;
49722;SDS011;43484;43.608;1.458;2023-01-15T11:52:07;4.45;;;0.60;;
49722;SDS011;43484;43.608;1.458;2023-01-15T11:54:37;5.93;;;0.50;;
49722;SDS011;43484;43.608;1.458;2023-01-15T11:57:06;5.05;;;0.70;;
49722;SDS011;43484;43.608;1.458;2023-01-15T11:59:33;2.47;;;0.50;;
49722;SDS011;43484;43.608;1.458;2023-01-15T12:04:40;0.98;;;0.43;;
49722;SDS011;43484;43.608;1.458;2023-01-15T12:07:24;2.38;;;0.50;;
49722;SDS011;43484;43.608;1.458;2023-01-15T12:17:46;3.60;;;0.60;;
49722;SDS011;43484;43.608;1.458;2023-01-15T12:31:10;2.05;;;0.40;;
49722;SDS011;43484;43.608;1.458;2023-01-15T12:36:20;3.17;;;0.45;;
49722;SDS011;43484;43.608;1.458;2023-01-15T12:42:01;1.83;;;0.50;;
49722;SDS011;43484;43.608;1.458;2023-01-15T12:44:51;1.08;;;0.30;;
49722;SDS011;43484;43.608;1.458;2023-01-15T12:50:43;1.50;;;0.32;;
49722;SDS011;43484;43.608;1.458;2023-01-15T13:01:22;3.15;;;0.52;;
49722;SDS011;43484;43.608;1.458;2023-01-15T13:03:59;1.85;;;0.38;;
49722;SDS011;43484;43.608;1.458;2023-01-15T13:06:29;2.65;;;0.50;;
49722;SDS011;43484;43.608;1.458;2023-01-15T13:11:38;1.13;;;0.60;;
49722;SDS011;43484;43.608;1.458;2023-01-15T13:14:11;1.95;;;0.52;;
49722;SDS011;43484;43.608;1.458;2023-01-15T13:16:45;1.95;;;0.45;;
49722;SDS011;43484;43.608;1.458;2023-01-15T13:22:21;3.80;;;0.40;;
49722;SDS011;43484;43.608;1.458;2023-01-15T13:25:06;1.45;;;0.47;;
49722;SDS011;43484;43.608;1.458;2023-01-15T13:30:20;1.35;;;0.38;;
49722;SDS011;43484;43.608;1.458;2023-01-15T13:35:53;1.08;;;0.50;;
49722;SDS011;43484;43.608;1.458;2023-01-15T13:38:29;2.13;;;0.52;;
49722;SDS011;43484;43.608;1.458;2023-01-15T13:43:41;1.95;;;0.50;;
49722;SDS011;43484;43.608;1.458;2023-01-15T13:46:09;3.42;;;0.40;;
49722;SDS011;43484;43.608;1.458;2023-01-15T13:48:48;3.40;;;1.02;;
49722;SDS011;43484;43.608;1.458;2023-01-15T13:51:29;1.00;;;0.30;;
49722;SDS011;43484;43.608;1.458;2023-01-15T13:54:02;0.85;;;0.30;;
49722;SDS011;43484;43.608;1.458;2023-01-15T13:56:32;2.17;;;0.45;;
49722;SDS011;43484;43.608;1.458;2023-01-15T13:59:03;1.92;;;0.52;;
49722;SDS011;43484;43.608;1.458;2023-01-15T14:01:33;0.88;;;0.30;;
49722;SDS011;43484;43.608;1.458;2023-01-15T14:06:46;0.60;;;0.40;;
49722;SDS011;43484;43.608;1.458;2023-01-15T14:17:06;1.88;;;0.38;;
49722;SDS011;43484;43.608;1.458;2023-01-15T14:25:42;0.90;;;0.40;;
49722;SDS011;43484;43.608;1.458;2023-01-15T14:28:31;1.63;;;0.50;;
49722;SDS011;43484;43.608;1.458;2023-01-15T14:33:49;2.33;;;0.40;;
49722;SDS011;43484;43.608;1.458;2023-01-15T14:36:31;1.80;;;0.55;;
49722;SDS011;43484;43.608;1.458;2023-01-15T14:39:08;1.48;;;0.47;;
49722;SDS011;43484;43.608;1.458;2023-01-15T14:41:54;1.30;;;0.52;;
49722;SDS011;43484;43.608;1.458;2023-01-15T14:45:35;1.63;;;0.57;;
49722;SDS011;43484;43.608;1.458;2023-01-15T14:50:44;2.45;;;0.68;;
49722;SDS011;43484;43.608;1.458;2023-01-15T14:58:35;0.82;;;0.32;;
49722;SDS011;43484;43.608;1.458;2023-01-15T15:03:52;1.65;;;0.50;;
49722;SDS011;43484;43.608;1.458;2023-01-15T15:06:47;1.60;;;0.40;;
49722;SDS011;43484;43.608;1.458;2023-01-15T15:15:00;1.30;;;0.50;;
49722;SDS011;43484;43.608;1.458;2023-01-15T15:17:42;2.15;;;0.43;;
49722;SDS011;43484;43.608;1.458;2023-01-15T15:20:17;1.67;;;0.40;;
49722;SDS011;43484;43.608;1.458;2023-01-15T15:22:51;1.65;;;0.50;;
49722;SDS011;43484;43.608;1.458;2023-01-15T15:25:25;2.15;;;0.45;;
49722;SDS011;43484;43.608;1.458;2023-01-15T15:28:05;1.27;;;0.40;;
49722;SDS011;43484;43.608;1.458;2023-01-15T15:30:39;1.95;;;0.60;;
49722;SDS011;43484;43.608;1.458;2023-01-15T15:33:08;0.90;;;0.30;;
49722;SDS011;43484;43.608;1.458;2023-01-15T15:35:52;1.67;;;0.45;;
49722;SDS011;43484;43.608;1.458;2023-01-15T15:38:21;1.00;;;0.40;;
49722;SDS011;43484;43.608;1.458;2023-01-15T15:41:08;3.70;;;0.70;;
49722;SDS011;43484;43.608;1.458;2023-01-15T15:46:34;2.00;;;0.50;;
49722;SDS011;43484;43.608;1.458;2023-01-15T15:49:20;1.73;;;0.45;;
49722;SDS011;43484;43.608;1.458;2023-01-15T15:51:47;1.92;;;0.47;;
49722;SDS011;43484;43.608;1.458;2023-01-15T15:54:24;4.25;;;0.60;;
49722;SDS011;43484;43.608;1.458;2023-01-15T15:57:03;1.40;;;0.45;;
49722;SDS011;43484;43.608;1.458;2023-01-15T16:05:00;1.85;;;0.57;;
49722;SDS011;43484;43.608;1.458;2023-01-15T16:07:30;2.17;;;0.75;;
49722;SDS011;43484;43.608;1.458;2023-01-15T16:10:08;1.35;;;0.60;;
49722;SDS011;43484;43.608;1.458;2023-01-15T16:12:49;1.90;;;0.55;;
49722;SDS011;43484;43.608;1.458;2023-01-15T16:15:37;2.10;;;0.50;;
49722;SDS011;43484;43.608;1.458;2023-01-15T16:18:05;1.67;;;0.50;;
49722;SDS011;43484;43.608;1.458;2023-01-15T16:20:49;1.48;;;0.60;;
49722;SDS011;43484;43.608;1.458;2023-01-15T16:23:18;1.08;;;0.50;;
49722;SDS011;43484;43.608;1.458;2023-01-15T16:28:25;1.13;;;0.65;;
49722;SDS011;43484;43.608;1.458;2023-01-15T16:30:58;1.87;;;0.30;;
49722;SDS011;43484;43.608;1.458;2023-01-15T16:33:30;2.80;;;0.60;;
49722;SDS011;43484;43.608;1.458;2023-01-15T16:35:58;1.75;;;0.55;;
49722;SDS011;43484;43.608;1.458;2023-01-15T16:38:25;1.25;;;0.30;;
49722;SDS011;43484;43.608;1.458;2023-01-15T16:40:52;0.80;;;0.40;;
49722;SDS011;43484;43.608;1.458;2023-01-15T16:43:22;1.80;;;0.70;;
49722;SDS011;43484;43.608;1.458;2023-01-15T16:48:32;2.10;;;0.40;;
49722;SDS011;43484;43.608;1.458;2023-01-15T16:53:48;1.33;;;0.47;;
49722;SDS011;43484;43.608;1.458;2023-01-15T16:56:26;1.70;;;0.63;;
49722;SDS011;43484;43.608;1.458;2023-01-15T16:58:52;1.42;;;0.60;;
49722;SDS011;43484;43.608;1.458;2023-01-15T17:04:00;1.70;;;0.40;;
49722;SDS011;43484;43.608;1.458;2023-01-15T17:06:28;0.85;;;0.40;;
49722;SDS011;43484;43.608;1.458;2023-01-15T17:08:55;2.80;;;0.73;;
49722;SDS011;43484;43.608;1.458;2023-01-15T17:11:31;1.55;;;0.50;;
49722;SDS011;43484;43.608;1.458;2023-01-15T17:19:50;1.95;;;0.47;;
49722;SDS011;43484;43.608;1.458;2023-01-15T17:24:54;2.50;;;0.70;;
49722;SDS011;43484;43.608;1.458;2023-01-15T17:27:22;1.42;;;0.82;;
49722;SDS011;43484;43.608;1.458;2023-01-15T17:29:50;1.58;;;0.68;;
49722;SDS011;43484;43.608;1.458;2023-01-15T17:32:18;1.77;;;0.60;;
49722;SDS011;43484;43.608;1.458;2023-01-15T17:34:50;0.82;;;0.40;;
49722;SDS011;43484;43.608;1.458;2023-01-15T17:37:17;1.20;;;0.65;;
49722;SDS011;43484;43.608;1.458;2023-01-15T17:39:43;1.60;;;0.52;;
49722;SDS011;43484;43.608;1.458;2023-01-15T17:42:14;3.05;;;0.80;;
49722;SDS011;43484;43.608;1.458;2023-01-15T17:44:42;1.85;;;0.57;;
49722;SDS011;43484;43.608;1.458;2023-01-15T17:47:09;0.90;;;0.70;;
49722;SDS011;43484;43.608;1.458;2023-01-15T17:49:36;1.25;;;0.60;;
49722;SDS011;43484;43.608;1.458;2023-01-15T17:52:03;1.10;;;0.45;;
49722;SDS011;43484;43.608;1.458;2023-01-15T17:54:31;2.42;;;0.80;;
49722;SDS011;43484;43.608;1.458;2023-01-15T17:57:16;1.02;;;0.60;;
49722;SDS011;43484;43.608;1.458;2023-01-15T18:00:02;11.35;;;0.80;;
49722;SDS011;43484;43.608;1.458;2023-01-15T18:02:48;12.82;;;1.02;;
49722;SDS011;43484;43.608;1.458;2023-01-15T18:05:33;7.32;;;0.93;;
49722;SDS011;43484;43.608;1.458;2023-01-15T18:08:01;8.02;;;1.00;;
49722;SDS011;43484;43.608;1.458;2023-01-15T18:10:29;5.25;;;0.60;;
49722;SDS011;43484;43.608;1.458;2023-01-15T18:12:56;20.33;;;1.38;;
49722;SDS011;43484;43.608;1.458;2023-01-15T18:15:23;3.83;;;0.88;;